sensor_id;sensor_type;location;lat;lon;timestamp;temperature;humidity
47338;DHT22;33069;51.970;5.892;2022-07-23T00:01:23;16.00;78.90
47338;DHT22;33069;51.970;5.892;2022-07-23T00:03:49;15.80;78.70
47338;DHT22;33069;51.970;5.892;2022-07-23T00:06:15;15.80;79.00
47338;DHT22;33069;51.970;5.892;2022-07-23T00:08:41;15.70;79.50
47338;DHT22;33069;51.970;5.892;2022-07-23T00:11:07;15.70;79.60
47338;DHT22;33069;51.970;5.892;2022-07-23T00:13:33;15.70;79.80
47338;DHT22;33069;51.970;5.892;2022-07-23T00:15:59;15.60;80.10
47338;DHT22;33069;51.970;5.892;2022-07-23T00:18:25;15.60;80.00
47338;DHT22;33069;51.970;5.892;2022-07-23T00:20:51;15.60;80.00
47338;DHT22;33069;51.970;5.892;2022-07-23T00:23:16;15.60;79.80
47338;DHT22;33069;51.970;5.892;2022-07-23T00:25:42;15.50;80.50
47338;DHT22;33069;51.970;5.892;2022-07-23T00:28:08;15.40;81.10
47338;DHT22;33069;51.970;5.892;2022-07-23T00:30:34;15.30;81.50
47338;DHT22;33069;51.970;5.892;2022-07-23T00:33:02;15.30;81.80
47338;DHT22;33069;51.970;5.892;2022-07-23T00:35:32;15.20;81.70
47338;DHT22;33069;51.970;5.892;2022-07-23T00:37:59;15.30;81.70
47338;DHT22;33069;51.970;5.892;2022-07-23T00:40:26;15.20;81.70
47338;DHT22;33069;51.970;5.892;2022-07-23T00:42:52;15.10;82.00
47338;DHT22;33069;51.970;5.892;2022-07-23T00:45:18;15.00;82.70
47338;DHT22;33069;51.970;5.892;2022-07-23T00:47:44;15.00;82.90
47338;DHT22;33069;51.970;5.892;2022-07-23T00:50:10;14.90;83.10
47338;DHT22;33069;51.970;5.892;2022-07-23T00:52:37;14.90;83.30
47338;DHT22;33069;51.970;5.892;2022-07-23T00:55:05;14.90;83.30
47338;DHT22;33069;51.970;5.892;2022-07-23T00:57:31;14.90;83.40
47338;DHT22;33069;51.970;5.892;2022-07-23T00:59:56;14.90;83.40
47338;DHT22;33069;51.970;5.892;2022-07-23T01:02:24;14.90;83.50
47338;DHT22;33069;51.970;5.892;2022-07-23T01:04:50;14.90;83.50
47338;DHT22;33069;51.970;5.892;2022-07-23T01:07:17;14.80;83.50
47338;DHT22;33069;51.970;5.892;2022-07-23T01:09:45;14.80;83.60
47338;DHT22;33069;51.970;5.892;2022-07-23T01:12:11;14.80;83.70
47338;DHT22;33069;51.970;5.892;2022-07-23T01:14:37;14.90;83.60
47338;DHT22;33069;51.970;5.892;2022-07-23T01:17:03;14.90;83.50
47338;DHT22;33069;51.970;5.892;2022-07-23T01:19:29;14.80;83.60
47338;DHT22;33069;51.970;5.892;2022-07-23T01:21:57;14.80;83.70
47338;DHT22;33069;51.970;5.892;2022-07-23T01:24:23;15.00;83.80
47338;DHT22;33069;51.970;5.892;2022-07-23T01:26:50;14.90;83.70
47338;DHT22;33069;51.970;5.892;2022-07-23T01:29:16;15.00;83.70
47338;DHT22;33069;51.970;5.892;2022-07-23T01:31:43;14.90;83.40
47338;DHT22;33069;51.970;5.892;2022-07-23T01:34:09;14.90;83.40
47338;DHT22;33069;51.970;5.892;2022-07-23T01:36:35;15.00;83.50
47338;DHT22;33069;51.970;5.892;2022-07-23T01:39:02;15.10;83.30
47338;DHT22;33069;51.970;5.892;2022-07-23T01:41:28;14.90;82.90
47338;DHT22;33069;51.970;5.892;2022-07-23T01:43:53;14.90;82.90
47338;DHT22;33069;51.970;5.892;2022-07-23T01:46:19;14.80;83.10
47338;DHT22;33069;51.970;5.892;2022-07-23T01:48:45;14.80;83.40
47338;DHT22;33069;51.970;5.892;2022-07-23T01:51:11;14.80;83.60
47338;DHT22;33069;51.970;5.892;2022-07-23T01:53:37;14.80;83.10
47338;DHT22;33069;51.970;5.892;2022-07-23T01:56:03;14.80;83.30
47338;DHT22;33069;51.970;5.892;2022-07-23T01:58:29;14.80;83.20
47338;DHT22;33069;51.970;5.892;2022-07-23T02:00:55;14.80;83.20
47338;DHT22;33069;51.970;5.892;2022-07-23T02:03:22;14.80;83.10
47338;DHT22;33069;51.970;5.892;2022-07-23T02:05:48;14.90;83.00
47338;DHT22;33069;51.970;5.892;2022-07-23T02:08:14;14.80;83.20
47338;DHT22;33069;51.970;5.892;2022-07-23T02:10:39;14.80;83.50
47338;DHT22;33069;51.970;5.892;2022-07-23T02:13:05;14.90;83.50
47338;DHT22;33069;51.970;5.892;2022-07-23T02:15:31;14.80;83.40
47338;DHT22;33069;51.970;5.892;2022-07-23T02:17:57;14.80;83.40
47338;DHT22;33069;51.970;5.892;2022-07-23T02:20:22;14.80;83.40
47338;DHT22;33069;51.970;5.892;2022-07-23T02:22:48;14.80;83.20
47338;DHT22;33069;51.970;5.892;2022-07-23T02:25:14;14.70;83.40
47338;DHT22;33069;51.970;5.892;2022-07-23T02:27:40;14.70;83.40
47338;DHT22;33069;51.970;5.892;2022-07-23T02:30:07;14.70;83.20
47338;DHT22;33069;51.970;5.892;2022-07-23T02:32:33;14.70;83.10
47338;DHT22;33069;51.970;5.892;2022-07-23T02:34:58;14.70;83.30
47338;DHT22;33069;51.970;5.892;2022-07-23T02:37:24;14.60;82.90
47338;DHT22;33069;51.970;5.892;2022-07-23T02:39:50;14.50;83.20
47338;DHT22;33069;51.970;5.892;2022-07-23T02:42:16;14.50;83.40
47338;DHT22;33069;51.970;5.892;2022-07-23T02:44:43;14.50;83.70
47338;DHT22;33069;51.970;5.892;2022-07-23T02:47:08;14.60;83.60
47338;DHT22;33069;51.970;5.892;2022-07-23T02:49:34;14.70;83.30
47338;DHT22;33069;51.970;5.892;2022-07-23T02:52:00;14.70;83.10
47338;DHT22;33069;51.970;5.892;2022-07-23T02:54:26;14.60;83.00
47338;DHT22;33069;51.970;5.892;2022-07-23T02:56:52;14.70;82.30
47338;DHT22;33069;51.970;5.892;2022-07-23T02:59:18;14.80;82.40
47338;DHT22;33069;51.970;5.892;2022-07-23T03:01:44;14.70;82.40
47338;DHT22;33069;51.970;5.892;2022-07-23T03:04:10;14.70;82.40
47338;DHT22;33069;51.970;5.892;2022-07-23T03:06:36;14.60;82.30
47338;DHT22;33069;51.970;5.892;2022-07-23T03:09:03;14.50;82.40
47338;DHT22;33069;51.970;5.892;2022-07-23T03:11:29;14.50;82.50
47338;DHT22;33069;51.970;5.892;2022-07-23T03:13:54;14.60;82.60
47338;DHT22;33069;51.970;5.892;2022-07-23T03:16:20;14.70;82.10
47338;DHT22;33069;51.970;5.892;2022-07-23T03:18:46;14.70;81.70
47338;DHT22;33069;51.970;5.892;2022-07-23T03:21:13;14.70;82.00
47338;DHT22;33069;51.970;5.892;2022-07-23T03:23:39;14.70;81.80
47338;DHT22;33069;51.970;5.892;2022-07-23T03:26:05;14.60;81.70
47338;DHT22;33069;51.970;5.892;2022-07-23T03:28:30;14.50;82.10
47338;DHT22;33069;51.970;5.892;2022-07-23T03:30:56;14.40;82.30
47338;DHT22;33069;51.970;5.892;2022-07-23T03:33:22;14.30;82.40
47338;DHT22;33069;51.970;5.892;2022-07-23T03:35:48;14.30;82.40
47338;DHT22;33069;51.970;5.892;2022-07-23T03:38:14;14.40;82.30
47338;DHT22;33069;51.970;5.892;2022-07-23T03:40:40;14.30;82.50
47338;DHT22;33069;51.970;5.892;2022-07-23T03:43:06;14.30;82.80
47338;DHT22;33069;51.970;5.892;2022-07-23T03:45:32;14.30;82.60
47338;DHT22;33069;51.970;5.892;2022-07-23T03:47:57;14.30;82.70
47338;DHT22;33069;51.970;5.892;2022-07-23T03:50:23;14.40;83.00
47338;DHT22;33069;51.970;5.892;2022-07-23T03:52:49;14.40;82.80
47338;DHT22;33069;51.970;5.892;2022-07-23T03:55:15;14.40;82.70
47338;DHT22;33069;51.970;5.892;2022-07-23T03:57:41;14.30;82.70
47338;DHT22;33069;51.970;5.892;2022-07-23T04:00:08;14.40;82.60
47338;DHT22;33069;51.970;5.892;2022-07-23T04:02:38;14.50;82.40
47338;DHT22;33069;51.970;5.892;2022-07-23T04:05:04;14.50;82.10
47338;DHT22;33069;51.970;5.892;2022-07-23T04:07:30;14.50;82.50
47338;DHT22;33069;51.970;5.892;2022-07-23T04:09:56;14.60;82.30
47338;DHT22;33069;51.970;5.892;2022-07-23T04:12:22;14.70;82.10
47338;DHT22;33069;51.970;5.892;2022-07-23T04:14:48;14.70;81.90
47338;DHT22;33069;51.970;5.892;2022-07-23T04:17:14;14.70;81.70
47338;DHT22;33069;51.970;5.892;2022-07-23T04:19:40;14.80;81.60
47338;DHT22;33069;51.970;5.892;2022-07-23T04:22:11;14.70;81.40
47338;DHT22;33069;51.970;5.892;2022-07-23T04:24:37;14.80;81.20
47338;DHT22;33069;51.970;5.892;2022-07-23T04:27:03;14.80;81.10
47338;DHT22;33069;51.970;5.892;2022-07-23T04:29:29;14.60;81.50
47338;DHT22;33069;51.970;5.892;2022-07-23T04:31:55;14.50;81.90
47338;DHT22;33069;51.970;5.892;2022-07-23T04:34:21;14.80;82.00
47338;DHT22;33069;51.970;5.892;2022-07-23T04:36:47;14.70;81.80
47338;DHT22;33069;51.970;5.892;2022-07-23T04:39:13;14.80;81.60
47338;DHT22;33069;51.970;5.892;2022-07-23T04:41:39;14.80;81.50
47338;DHT22;33069;51.970;5.892;2022-07-23T04:44:05;14.80;81.60
47338;DHT22;33069;51.970;5.892;2022-07-23T04:46:31;14.80;81.70
47338;DHT22;33069;51.970;5.892;2022-07-23T04:48:57;15.00;81.40
47338;DHT22;33069;51.970;5.892;2022-07-23T04:51:22;15.10;80.50
47338;DHT22;33069;51.970;5.892;2022-07-23T04:53:48;15.20;80.30
47338;DHT22;33069;51.970;5.892;2022-07-23T04:56:14;15.10;80.10
47338;DHT22;33069;51.970;5.892;2022-07-23T04:58:39;15.20;80.30
47338;DHT22;33069;51.970;5.892;2022-07-23T05:01:05;15.20;79.80
47338;DHT22;33069;51.970;5.892;2022-07-23T05:03:31;15.00;79.90
47338;DHT22;33069;51.970;5.892;2022-07-23T05:05:56;15.00;80.40
47338;DHT22;33069;51.970;5.892;2022-07-23T05:08:22;15.10;80.40
47338;DHT22;33069;51.970;5.892;2022-07-23T05:10:48;15.20;80.50
47338;DHT22;33069;51.970;5.892;2022-07-23T05:13:15;15.30;79.90
47338;DHT22;33069;51.970;5.892;2022-07-23T05:15:42;15.50;79.40
47338;DHT22;33069;51.970;5.892;2022-07-23T05:18:08;15.50;79.00
47338;DHT22;33069;51.970;5.892;2022-07-23T05:20:34;15.70;78.70
47338;DHT22;33069;51.970;5.892;2022-07-23T05:23:00;15.60;78.30
47338;DHT22;33069;51.970;5.892;2022-07-23T05:25:26;15.50;78.60
47338;DHT22;33069;51.970;5.892;2022-07-23T05:27:52;15.50;78.90
47338;DHT22;33069;51.970;5.892;2022-07-23T05:30:18;15.30;78.90
47338;DHT22;33069;51.970;5.892;2022-07-23T05:32:43;15.40;79.50
47338;DHT22;33069;51.970;5.892;2022-07-23T05:35:09;15.50;79.30
47338;DHT22;33069;51.970;5.892;2022-07-23T05:37:35;15.40;78.80
47338;DHT22;33069;51.970;5.892;2022-07-23T05:40:03;15.40;79.00
47338;DHT22;33069;51.970;5.892;2022-07-23T05:42:31;15.50;79.20
47338;DHT22;33069;51.970;5.892;2022-07-23T05:44:57;15.50;79.00
47338;DHT22;33069;51.970;5.892;2022-07-23T05:47:23;15.40;79.70
47338;DHT22;33069;51.970;5.892;2022-07-23T05:49:48;15.40;80.00
47338;DHT22;33069;51.970;5.892;2022-07-23T05:52:14;15.50;79.90
47338;DHT22;33069;51.970;5.892;2022-07-23T05:54:40;15.70;80.10
47338;DHT22;33069;51.970;5.892;2022-07-23T05:57:05;15.70;79.80
47338;DHT22;33069;51.970;5.892;2022-07-23T05:59:31;15.90;79.10
47338;DHT22;33069;51.970;5.892;2022-07-23T06:01:57;15.90;78.60
47338;DHT22;33069;51.970;5.892;2022-07-23T06:04:22;15.90;78.10
47338;DHT22;33069;51.970;5.892;2022-07-23T06:06:48;16.10;78.10
47338;DHT22;33069;51.970;5.892;2022-07-23T06:09:14;16.20;77.20
47338;DHT22;33069;51.970;5.892;2022-07-23T06:11:41;16.30;77.20
47338;DHT22;33069;51.970;5.892;2022-07-23T06:14:06;16.50;76.90
47338;DHT22;33069;51.970;5.892;2022-07-23T06:16:32;16.50;76.10
47338;DHT22;33069;51.970;5.892;2022-07-23T06:18:58;16.60;75.60
47338;DHT22;33069;51.970;5.892;2022-07-23T06:21:23;16.70;75.30
47338;DHT22;33069;51.970;5.892;2022-07-23T06:23:49;16.60;75.10
47338;DHT22;33069;51.970;5.892;2022-07-23T06:26:15;16.50;74.70
47338;DHT22;33069;51.970;5.892;2022-07-23T06:28:41;16.60;74.70
47338;DHT22;33069;51.970;5.892;2022-07-23T06:31:06;16.80;74.00
47338;DHT22;33069;51.970;5.892;2022-07-23T06:33:33;17.00;72.90
47338;DHT22;33069;51.970;5.892;2022-07-23T06:35:59;16.90;73.20
47338;DHT22;33069;51.970;5.892;2022-07-23T06:38:24;17.30;72.50
47338;DHT22;33069;51.970;5.892;2022-07-23T06:40:52;16.90;72.00
47338;DHT22;33069;51.970;5.892;2022-07-23T06:43:17;17.00;72.10
47338;DHT22;33069;51.970;5.892;2022-07-23T06:45:43;17.30;71.20
47338;DHT22;33069;51.970;5.892;2022-07-23T06:48:09;17.20;72.40
47338;DHT22;33069;51.970;5.892;2022-07-23T06:50:34;17.40;70.50
47338;DHT22;33069;51.970;5.892;2022-07-23T06:53:00;17.60;69.30
47338;DHT22;33069;51.970;5.892;2022-07-23T06:55:26;17.70;68.70
47338;DHT22;33069;51.970;5.892;2022-07-23T06:57:52;17.60;68.90
47338;DHT22;33069;51.970;5.892;2022-07-23T07:00:17;17.70;69.80
47338;DHT22;33069;51.970;5.892;2022-07-23T07:02:43;17.70;69.80
47338;DHT22;33069;51.970;5.892;2022-07-23T07:05:09;17.80;69.50
47338;DHT22;33069;51.970;5.892;2022-07-23T07:07:35;17.70;69.30
47338;DHT22;33069;51.970;5.892;2022-07-23T07:10:02;17.80;68.70
47338;DHT22;33069;51.970;5.892;2022-07-23T07:12:28;17.90;68.40
47338;DHT22;33069;51.970;5.892;2022-07-23T07:14:53;17.80;68.70
47338;DHT22;33069;51.970;5.892;2022-07-23T07:17:19;17.50;70.00
47338;DHT22;33069;51.970;5.892;2022-07-23T07:19:45;17.30;71.00
47338;DHT22;33069;51.970;5.892;2022-07-23T07:22:10;17.20;70.90
47338;DHT22;33069;51.970;5.892;2022-07-23T07:24:36;17.40;70.50
47338;DHT22;33069;51.970;5.892;2022-07-23T07:27:02;17.60;70.30
47338;DHT22;33069;51.970;5.892;2022-07-23T07:29:27;17.70;69.70
47338;DHT22;33069;51.970;5.892;2022-07-23T07:31:54;17.70;70.40
47338;DHT22;33069;51.970;5.892;2022-07-23T07:34:20;17.60;69.00
47338;DHT22;33069;51.970;5.892;2022-07-23T07:36:45;17.80;68.00
47338;DHT22;33069;51.970;5.892;2022-07-23T07:39:11;17.70;67.00
47338;DHT22;33069;51.970;5.892;2022-07-23T07:41:37;17.60;68.50
47338;DHT22;33069;51.970;5.892;2022-07-23T07:44:03;17.70;68.10
47338;DHT22;33069;51.970;5.892;2022-07-23T07:46:29;17.80;68.50
47338;DHT22;33069;51.970;5.892;2022-07-23T07:48:56;17.80;67.90
47338;DHT22;33069;51.970;5.892;2022-07-23T07:51:21;17.80;66.90
47338;DHT22;33069;51.970;5.892;2022-07-23T07:53:47;17.90;67.40
47338;DHT22;33069;51.970;5.892;2022-07-23T07:56:13;18.10;66.70
47338;DHT22;33069;51.970;5.892;2022-07-23T07:58:39;18.10;65.50
47338;DHT22;33069;51.970;5.892;2022-07-23T08:01:04;18.30;64.80
47338;DHT22;33069;51.970;5.892;2022-07-23T08:03:30;18.10;65.30
47338;DHT22;33069;51.970;5.892;2022-07-23T08:05:56;18.20;64.30
47338;DHT22;33069;51.970;5.892;2022-07-23T08:08:21;18.20;64.90
47338;DHT22;33069;51.970;5.892;2022-07-23T08:10:47;18.50;64.20
47338;DHT22;33069;51.970;5.892;2022-07-23T08:13:14;18.40;64.50
47338;DHT22;33069;51.970;5.892;2022-07-23T08:15:41;18.30;63.80
47338;DHT22;33069;51.970;5.892;2022-07-23T08:18:07;18.30;63.90
47338;DHT22;33069;51.970;5.892;2022-07-23T08:20:32;18.50;65.40
47338;DHT22;33069;51.970;5.892;2022-07-23T08:23:02;18.60;65.50
47338;DHT22;33069;51.970;5.892;2022-07-23T08:25:37;18.60;65.30
47338;DHT22;33069;51.970;5.892;2022-07-23T08:28:09;18.70;65.40
47338;DHT22;33069;51.970;5.892;2022-07-23T08:30:36;18.70;64.50
47338;DHT22;33069;51.970;5.892;2022-07-23T08:33:07;19.30;63.90
47338;DHT22;33069;51.970;5.892;2022-07-23T08:35:44;18.70;64.60
47338;DHT22;33069;51.970;5.892;2022-07-23T08:38:13;18.60;64.60
47338;DHT22;33069;51.970;5.892;2022-07-23T08:40:44;18.80;64.90
47338;DHT22;33069;51.970;5.892;2022-07-23T08:43:16;18.80;64.10
47338;DHT22;33069;51.970;5.892;2022-07-23T08:45:46;19.20;63.30
47338;DHT22;33069;51.970;5.892;2022-07-23T08:48:20;19.00;64.00
47338;DHT22;33069;51.970;5.892;2022-07-23T08:50:47;18.90;64.80
47338;DHT22;33069;51.970;5.892;2022-07-23T08:53:14;19.00;65.20
47338;DHT22;33069;51.970;5.892;2022-07-23T08:55:46;19.00;64.00
47338;DHT22;33069;51.970;5.892;2022-07-23T08:58:13;19.20;64.40
47338;DHT22;33069;51.970;5.892;2022-07-23T09:00:39;19.20;63.20
47338;DHT22;33069;51.970;5.892;2022-07-23T09:03:05;19.30;62.60
47338;DHT22;33069;51.970;5.892;2022-07-23T09:05:30;19.70;61.60
47338;DHT22;33069;51.970;5.892;2022-07-23T09:08:15;19.50;61.70
47338;DHT22;33069;51.970;5.892;2022-07-23T09:10:54;19.50;62.20
47338;DHT22;33069;51.970;5.892;2022-07-23T09:13:24;20.10;61.10
47338;DHT22;33069;51.970;5.892;2022-07-23T09:15:51;20.00;61.20
47338;DHT22;33069;51.970;5.892;2022-07-23T09:18:17;20.30;60.20
47338;DHT22;33069;51.970;5.892;2022-07-23T09:20:44;19.80;60.50
47338;DHT22;33069;51.970;5.892;2022-07-23T09:23:09;20.20;59.70
47338;DHT22;33069;51.970;5.892;2022-07-23T09:25:35;20.20;59.70
47338;DHT22;33069;51.970;5.892;2022-07-23T09:28:01;20.00;61.10
47338;DHT22;33069;51.970;5.892;2022-07-23T09:30:31;20.00;63.10
47338;DHT22;33069;51.970;5.892;2022-07-23T09:35:53;19.90;61.00
47338;DHT22;33069;51.970;5.892;2022-07-23T09:38:22;19.80;59.70
47338;DHT22;33069;51.970;5.892;2022-07-23T09:41:08;19.60;60.70
47338;DHT22;33069;51.970;5.892;2022-07-23T09:43:34;19.50;61.30
47338;DHT22;33069;51.970;5.892;2022-07-23T09:46:23;19.70;62.00
47338;DHT22;33069;51.970;5.892;2022-07-23T09:48:54;19.90;61.80
47338;DHT22;33069;51.970;5.892;2022-07-23T09:51:22;19.80;60.40
47338;DHT22;33069;51.970;5.892;2022-07-23T09:53:54;20.20;59.90
47338;DHT22;33069;51.970;5.892;2022-07-23T09:56:20;20.40;58.50
47338;DHT22;33069;51.970;5.892;2022-07-23T09:58:49;20.40;58.80
47338;DHT22;33069;51.970;5.892;2022-07-23T10:01:17;20.80;56.10
47338;DHT22;33069;51.970;5.892;2022-07-23T10:03:43;21.20;56.50
47338;DHT22;33069;51.970;5.892;2022-07-23T10:06:10;20.60;56.30
47338;DHT22;33069;51.970;5.892;2022-07-23T10:08:40;20.40;57.40
47338;DHT22;33069;51.970;5.892;2022-07-23T10:11:09;20.70;56.80
47338;DHT22;33069;51.970;5.892;2022-07-23T10:13:36;20.70;57.40
47338;DHT22;33069;51.970;5.892;2022-07-23T10:16:23;20.50;57.40
47338;DHT22;33069;51.970;5.892;2022-07-23T10:18:49;20.40;58.90
47338;DHT22;33069;51.970;5.892;2022-07-23T10:32:08;21.80;55.30
47338;DHT22;33069;51.970;5.892;2022-07-23T10:37:16;21.70;54.00
47338;DHT22;33069;51.970;5.892;2022-07-23T10:40:11;21.60;53.90
47338;DHT22;33069;51.970;5.892;2022-07-23T10:42:38;21.40;55.40
47338;DHT22;33069;51.970;5.892;2022-07-23T10:45:29;21.50;56.10
47338;DHT22;33069;51.970;5.892;2022-07-23T10:47:56;21.50;54.80
47338;DHT22;33069;51.970;5.892;2022-07-23T10:50:36;21.50;56.10
47338;DHT22;33069;51.970;5.892;2022-07-23T10:57:57;21.90;55.10
47338;DHT22;33069;51.970;5.892;2022-07-23T11:00:24;22.40;53.10
47338;DHT22;33069;51.970;5.892;2022-07-23T11:02:58;22.80;51.30
47338;DHT22;33069;51.970;5.892;2022-07-23T11:05:26;22.80;51.60
47338;DHT22;33069;51.970;5.892;2022-07-23T11:23:58;23.10;50.90
47338;DHT22;33069;51.970;5.892;2022-07-23T11:26:47;22.90;52.20
47338;DHT22;33069;51.970;5.892;2022-07-23T11:31:59;23.30;50.70
47338;DHT22;33069;51.970;5.892;2022-07-23T11:34:32;22.80;51.30
47338;DHT22;33069;51.970;5.892;2022-07-23T11:36:59;23.20;50.70
47338;DHT22;33069;51.970;5.892;2022-07-23T11:39:27;23.00;51.90
47338;DHT22;33069;51.970;5.892;2022-07-23T11:41:54;23.00;51.10
47338;DHT22;33069;51.970;5.892;2022-07-23T11:44:29;22.90;50.70
47338;DHT22;33069;51.970;5.892;2022-07-23T11:47:00;22.90;50.60
47338;DHT22;33069;51.970;5.892;2022-07-23T11:49:27;23.50;49.30
47338;DHT22;33069;51.970;5.892;2022-07-23T11:54:31;23.40;51.50
47338;DHT22;33069;51.970;5.892;2022-07-23T11:57:01;23.70;49.80
47338;DHT22;33069;51.970;5.892;2022-07-23T11:59:30;24.00;50.20
47338;DHT22;33069;51.970;5.892;2022-07-23T12:02:02;23.70;49.20
47338;DHT22;33069;51.970;5.892;2022-07-23T12:04:42;23.40;49.90
47338;DHT22;33069;51.970;5.892;2022-07-23T12:07:37;23.70;48.70
47338;DHT22;33069;51.970;5.892;2022-07-23T12:12:52;24.00;48.50
47338;DHT22;33069;51.970;5.892;2022-07-23T12:15:27;24.10;47.80
47338;DHT22;33069;51.970;5.892;2022-07-23T12:17:54;24.00;49.20
47338;DHT22;33069;51.970;5.892;2022-07-23T12:20:32;23.70;49.00
47338;DHT22;33069;51.970;5.892;2022-07-23T12:23:01;23.60;51.40
47338;DHT22;33069;51.970;5.892;2022-07-23T12:25:32;23.30;51.60
47338;DHT22;33069;51.970;5.892;2022-07-23T12:28:21;24.00;49.00
47338;DHT22;33069;51.970;5.892;2022-07-23T12:30:49;24.40;47.30
47338;DHT22;33069;51.970;5.892;2022-07-23T12:33:26;24.20;48.60
47338;DHT22;33069;51.970;5.892;2022-07-23T12:35:53;24.40;49.60
47338;DHT22;33069;51.970;5.892;2022-07-23T12:38:22;24.30;49.80
47338;DHT22;33069;51.970;5.892;2022-07-23T12:40:49;24.90;49.30
47338;DHT22;33069;51.970;5.892;2022-07-23T12:51:02;23.70;51.50
47338;DHT22;33069;51.970;5.892;2022-07-23T13:01:06;24.50;46.50
47338;DHT22;33069;51.970;5.892;2022-07-23T13:03:40;24.40;47.60
47338;DHT22;33069;51.970;5.892;2022-07-23T13:06:09;25.00;46.90
47338;DHT22;33069;51.970;5.892;2022-07-23T13:08:38;25.30;46.40
47338;DHT22;33069;51.970;5.892;2022-07-23T13:11:05;25.50;47.00
47338;DHT22;33069;51.970;5.892;2022-07-23T13:13:34;25.80;45.60
47338;DHT22;33069;51.970;5.892;2022-07-23T13:16:00;26.20;45.00
47338;DHT22;33069;51.970;5.892;2022-07-23T13:18:27;25.80;45.80
47338;DHT22;33069;51.970;5.892;2022-07-23T13:20:54;26.10;44.70
47338;DHT22;33069;51.970;5.892;2022-07-23T13:23:20;26.00;45.30
47338;DHT22;33069;51.970;5.892;2022-07-23T13:25:46;25.30;47.40
47338;DHT22;33069;51.970;5.892;2022-07-23T13:28:13;25.30;47.40
47338;DHT22;33069;51.970;5.892;2022-07-23T13:30:40;25.30;48.40
47338;DHT22;33069;51.970;5.892;2022-07-23T13:33:07;25.80;47.40
47338;DHT22;33069;51.970;5.892;2022-07-23T13:35:35;26.20;45.70
47338;DHT22;33069;51.970;5.892;2022-07-23T13:38:01;25.40;47.10
47338;DHT22;33069;51.970;5.892;2022-07-23T13:40:27;25.40;46.40
47338;DHT22;33069;51.970;5.892;2022-07-23T13:42:53;26.30;45.00
47338;DHT22;33069;51.970;5.892;2022-07-23T13:45:19;26.30;44.40
47338;DHT22;33069;51.970;5.892;2022-07-23T13:47:45;26.60;43.50
47338;DHT22;33069;51.970;5.892;2022-07-23T13:50:10;25.10;48.10
47338;DHT22;33069;51.970;5.892;2022-07-23T13:52:37;24.60;47.90
47338;DHT22;33069;51.970;5.892;2022-07-23T13:55:05;24.70;50.20
47338;DHT22;33069;51.970;5.892;2022-07-23T13:57:31;25.20;47.40
47338;DHT22;33069;51.970;5.892;2022-07-23T13:59:57;25.80;47.90
47338;DHT22;33069;51.970;5.892;2022-07-23T14:02:23;26.30;46.20
47338;DHT22;33069;51.970;5.892;2022-07-23T14:04:49;26.50;48.50
47338;DHT22;33069;51.970;5.892;2022-07-23T14:07:15;26.40;45.20
47338;DHT22;33069;51.970;5.892;2022-07-23T14:09:41;26.00;45.80
47338;DHT22;33069;51.970;5.892;2022-07-23T14:12:07;25.60;46.10
47338;DHT22;33069;51.970;5.892;2022-07-23T14:14:33;26.80;42.00
47338;DHT22;33069;51.970;5.892;2022-07-23T14:16:59;26.90;45.50
47338;DHT22;33069;51.970;5.892;2022-07-23T14:19:25;27.20;43.40
47338;DHT22;33069;51.970;5.892;2022-07-23T14:21:50;26.60;43.30
47338;DHT22;33069;51.970;5.892;2022-07-23T14:24:16;27.00;43.00
47338;DHT22;33069;51.970;5.892;2022-07-23T14:26:42;27.70;41.40
47338;DHT22;33069;51.970;5.892;2022-07-23T14:29:09;27.00;42.50
47338;DHT22;33069;51.970;5.892;2022-07-23T14:31:35;27.20;42.80
47338;DHT22;33069;51.970;5.892;2022-07-23T14:34:01;26.70;42.40
47338;DHT22;33069;51.970;5.892;2022-07-23T14:36:27;27.10;42.80
47338;DHT22;33069;51.970;5.892;2022-07-23T14:38:52;27.30;42.50
47338;DHT22;33069;51.970;5.892;2022-07-23T14:41:18;27.30;44.10
47338;DHT22;33069;51.970;5.892;2022-07-23T14:43:44;27.00;43.50
47338;DHT22;33069;51.970;5.892;2022-07-23T14:46:12;26.40;42.80
47338;DHT22;33069;51.970;5.892;2022-07-23T14:48:38;26.40;45.10
47338;DHT22;33069;51.970;5.892;2022-07-23T14:51:03;25.90;45.30
47338;DHT22;33069;51.970;5.892;2022-07-23T14:53:29;26.20;45.40
47338;DHT22;33069;51.970;5.892;2022-07-23T14:55:55;26.20;47.00
47338;DHT22;33069;51.970;5.892;2022-07-23T14:58:23;26.90;44.10
47338;DHT22;33069;51.970;5.892;2022-07-23T15:00:50;27.20;43.10
47338;DHT22;33069;51.970;5.892;2022-07-23T15:03:16;27.00;43.70
47338;DHT22;33069;51.970;5.892;2022-07-23T15:05:42;27.10;43.80
47338;DHT22;33069;51.970;5.892;2022-07-23T15:08:08;27.70;41.70
47338;DHT22;33069;51.970;5.892;2022-07-23T15:10:34;27.60;43.00
47338;DHT22;33069;51.970;5.892;2022-07-23T15:13:00;27.80;42.30
47338;DHT22;33069;51.970;5.892;2022-07-23T15:15:26;27.60;41.30
47338;DHT22;33069;51.970;5.892;2022-07-23T15:17:51;27.30;43.00
47338;DHT22;33069;51.970;5.892;2022-07-23T15:20:17;27.40;43.80
47338;DHT22;33069;51.970;5.892;2022-07-23T15:22:43;27.30;44.10
47338;DHT22;33069;51.970;5.892;2022-07-23T15:25:11;27.00;44.20
47338;DHT22;33069;51.970;5.892;2022-07-23T15:27:37;28.30;40.60
47338;DHT22;33069;51.970;5.892;2022-07-23T15:30:03;27.80;42.10
47338;DHT22;33069;51.970;5.892;2022-07-23T15:32:29;27.30;42.40
47338;DHT22;33069;51.970;5.892;2022-07-23T15:34:55;28.00;41.20
47338;DHT22;33069;51.970;5.892;2022-07-23T15:37:21;28.70;40.50
47338;DHT22;33069;51.970;5.892;2022-07-23T15:39:49;27.90;42.90
47338;DHT22;33069;51.970;5.892;2022-07-23T15:42:14;28.70;40.70
47338;DHT22;33069;51.970;5.892;2022-07-23T15:44:41;26.90;44.60
47338;DHT22;33069;51.970;5.892;2022-07-23T15:47:12;27.60;43.30
47338;DHT22;33069;51.970;5.892;2022-07-23T15:49:38;26.80;43.40
47338;DHT22;33069;51.970;5.892;2022-07-23T15:52:04;27.20;43.20
47338;DHT22;33069;51.970;5.892;2022-07-23T15:54:29;28.00;42.00
47338;DHT22;33069;51.970;5.892;2022-07-23T15:56:55;28.00;43.30
47338;DHT22;33069;51.970;5.892;2022-07-23T15:59:21;28.30;41.30
47338;DHT22;33069;51.970;5.892;2022-07-23T16:01:47;28.50;40.30
47338;DHT22;33069;51.970;5.892;2022-07-23T16:04:12;28.30;41.70
47338;DHT22;33069;51.970;5.892;2022-07-23T16:06:38;29.20;37.90
47338;DHT22;33069;51.970;5.892;2022-07-23T16:09:07;29.30;37.90
47338;DHT22;33069;51.970;5.892;2022-07-23T16:11:33;29.20;38.80
47338;DHT22;33069;51.970;5.892;2022-07-23T16:13:59;29.10;39.30
47338;DHT22;33069;51.970;5.892;2022-07-23T16:16:25;29.20;38.60
47338;DHT22;33069;51.970;5.892;2022-07-23T16:18:53;28.00;39.40
47338;DHT22;33069;51.970;5.892;2022-07-23T16:21:19;28.30;40.10
47338;DHT22;33069;51.970;5.892;2022-07-23T16:23:45;28.10;39.60
47338;DHT22;33069;51.970;5.892;2022-07-23T16:26:12;28.90;38.10
47338;DHT22;33069;51.970;5.892;2022-07-23T16:28:39;28.00;41.30
47338;DHT22;33069;51.970;5.892;2022-07-23T16:31:05;27.30;42.00